Terminal Aerodrome Forecast
Issued by NWS

Home | Current Version | Previous Version | Graphics & Text | Print | Product List | Glossary On
Versions: 1 2 3 4 5 6 7 8 9 10 11 12 13 14 15 16 17 18 19 20
000
FTUS43 KICT 181621 AAC
TAFCNU
TAF AMD
KCNU 181621Z 1816/1912 VRB06KT P6SM BKN080
     FM190400 16005KT 5SM -DZ BR OVC015
     FM190600 16004KT 2SM -DZ BR OVC008
     FM190800 16004KT 1SM -DZ BR OVC003=

USA.gov is the U.S. government's official web portal to all federal, state and local government web resources and services.